Flight Track Log - Related Links

Times and Time Zones

All times are in EDT time to prevent confusion due to time zone crossing. See the PDT4147 flight status page for this flight to view local times or setup timezone preferences in your user account.

Time Position Orientation Groundspeed Altitude Reporting Facility
EDT Latitude Longitude Course Direction KTS MPH feet Rate Location/Type
Sun 01:45:15 PM 35.2391 -80.9373 187° South  Level FlightAware Approximate
Sun 01:45:51 PM 35.2242 -80.9394 22° Northeast 128 147 1,300  Level Atlanta Center
Sun 01:46:40 PM 35.2511 -80.9258 103° East 139 160 2,300 1,309 Climbing Atlanta Center
Sun 01:47:41 PM 35.2414 -80.8753 100° East 156 180 3,700 836 Climbing Atlanta Center
Sun 01:48:42 PM 35.2336 -80.8197 94° East 162 186 4,000 590 Climbing Atlanta Center
Sun 01:49:43 PM 35.2300 -80.7561 94° East 183 211 4,900 927 Climbing Atlanta Center
Sun 01:50:45 PM 35.2261 -80.6928 94° East 185 213 5,900 885 Climbing Atlanta Center
Sun 01:51:45 PM 35.2219 -80.6192 60° Northeast 204 235 6,700 942 Climbing Atlanta Center
Sun 01:52:46 PM 35.2497 -80.5597 60° Northeast 192 221 7,800 1,082 Climbing Atlanta Center
Sun 01:53:47 PM 35.2753 -80.5053 61° Northeast 194 223 8,900 621 Climbing Atlanta Center
Sun 01:54:42 PM 35.3025 -80.4456 62° Northeast 215 247 9,000 49 Climbing Atlanta Center
Sun 01:55:49 PM 35.3397 -80.3597 32° Northeast 250 288 9,000  Level Atlanta Center
Sun 02:03:15 PM 35.6985 -80.0811 North  Level FlightAware Approximate
Sun 02:04:15 PM 35.7640 -80.0764 North  Level FlightAware Approximate
Sun 02:05:15 PM 35.8295 -80.0717 North  Level FlightAware Approximate
Sun 02:06:15 PM 35.8950 -80.0670 North  Level FlightAware Approximate
Sun 02:07:15 PM 35.9605 -80.0623 North  Level FlightAware Approximate
Sun 02:08:15 PM 36.0261 -80.0576 North  Level FlightAware Approximate
Sun 02:09:15 PM 36.0916 -80.0529 North  Level FlightAware Approximate
Sun 02:10:15 PM 36.1571 -80.0481 North  Level FlightAware Approximate
Sun 02:11:15 PM 36.2226 -80.0434 North  Level FlightAware Approximate
Sun 02:12:15 PM 36.2881 -80.0386 North  Level FlightAware Approximate
Sun 02:13:15 PM 36.3537 -80.0339 North  Level FlightAware Approximate
Sun 02:14:15 PM 36.4192 -80.0291 North  Level FlightAware Approximate
Sun 02:15:15 PM 36.4847 -80.0243 North  Level FlightAware Approximate
Sun 02:16:15 PM 36.5502 -80.0195 North  Level FlightAware Approximate
Sun 02:17:15 PM 36.6157 -80.0147 North  Level FlightAware Approximate
Sun 02:18:15 PM 36.6813 -80.0099 North  Level FlightAware Approximate
Sun 02:19:15 PM 36.7468 -80.0051 North  Level FlightAware Approximate
Sun 02:20:15 PM 36.8104 -80.0000 360° North  Level FlightAware Approximate
Sun 02:21:15 PM 36.8760 -80.0000 North  Level FlightAware Approximate
Sun 02:22:15 PM 36.9414 -79.9973 North  Level FlightAware Approximate

Login

Don't have an account? Register now (free) for customized features, flight alerts, and more!